Etusivu
METAR-TAF:

METAR-TAF

Lentoasemat :

Craiova, Romania

Leveyspiiri: 44-14N, Pituuspiiri: 023-52E, korkeus merenpinnasta: 192 m

Tämänhetkinen sää

Tämä raportti tehtiin 41 minuuttia sitten, kello 10.30 UTC
Tuuli 24 kn lännestä
Lämpötila 8°C
Kosteus 61%
Ilmanpaine 1013 hPa
Näkyvyys 10 km tai enemmän
Hajanaisia pilviä 2000 ft:n korkeudessa

METAR: LRCV 141030Z 28024KT 9999 SCT020 08/01 Q1013 R27/19//95

Aika: 14:11 (11:11 UTC)

Sääennuste

Tämä raportti tehtiin 3 tuntia ja 11 minuuttia sitten, kello 08.00 UTC
Ennuste voimassa 14. päivästä klo 09 UTC - 14. päivään klo 18 UTC
Tuuli 20 kn lännestä
Näkyvyys 10 km tai enemmän
Hajanaisia pilviä 2000 ft:n korkeudessa
Hajonneita pilviä 4500 ft:n korkeudessa
Ajoittain
14. päivästä klo 09 UTC - 14. päivään klo 14 UTC
Tuuli 20 kn lännestä puuskistuen 30 kn:hen

TAF: LRCV 140800Z 1409/1418 28020KT 9999 SCT020 BKN045 TEMPO 1409/1414 27020G30KT

Säähavainnot ja -ennusteet yli 4000 lentoasemalta (METAR- ja TAF-raportit).

Käytössä olevat sääasemat on merkitty karttaan keltaisilla ja punaisilla pisteillä.

Aseta hiiri pisteen päälle nähdäksesi sääaseman nimen.

Klikkaa sitten nähdäksesi säähavainnot ja -ennusteet.

Kartan vaihtaminen: klikkaa mustalla rastilla varustettuja vihreitä pisteitä, niin voit zoomata sisään; viivalla varustettua vihreää pistettä, niin voit zoomata ulos tai vihreitä nuolia, niin pääset viereisille kartoille.


METAR-TAF: